createdAt,value
2018-04-13T04:00:35.180Z,54.63
2018-04-13T04:03:01.976Z,47.40
2018-04-13T04:05:28.745Z,56.97
2018-04-13T04:07:55.531Z,51.33
2018-04-13T04:10:23.021Z,48.63
2018-04-13T04:12:49.845Z,44.63
2018-04-13T04:15:16.605Z,53.93
2018-04-13T04:17:43.413Z,62.53
2018-04-13T04:20:15.924Z,48.80
2018-04-13T04:22:48.580Z,50.87
2018-04-13T04:25:21.248Z,52.40
2018-04-13T04:27:48.087Z,63.67
2018-04-13T04:30:14.912Z,51.73
2018-04-13T04:32:41.890Z,45.40
2018-04-13T04:35:08.686Z,48.90
2018-04-13T04:37:35.505Z,50.30
2018-04-13T04:40:02.281Z,66.37
2018-04-13T04:42:29.065Z,41.00
2018-04-13T04:44:55.865Z,44.70
2018-04-13T04:47:22.626Z,50.67
2018-04-13T04:49:49.485Z,57.83
2018-04-13T04:52:16.274Z,54.10
2018-04-13T04:54:43.050Z,46.10
2018-04-13T04:57:09.838Z,49.77
2018-04-13T04:59:37.314Z,51.47
2018-04-13T05:02:04.133Z,45.83
2018-04-13T05:04:30.942Z,66.53
2018-04-13T05:06:57.761Z,55.87
2018-04-13T05:09:24.586Z,58.10
2018-04-13T05:11:51.387Z,60.23
2018-04-13T05:14:18.226Z,61.17
2018-04-13T05:16:45.174Z,45.67
2018-04-13T05:19:12.664Z,58.47
2018-04-13T05:21:39.431Z,43.87
2018-04-13T05:24:06.238Z,50.90
2018-04-13T05:26:33.072Z,59.50
2018-04-13T05:28:59.858Z,51.93
2018-04-13T05:31:26.618Z,53.47
2018-04-13T05:33:53.397Z,48.40
2018-04-13T05:36:20.155Z,56.90
2018-04-13T05:38:46.998Z,49.10
2018-04-13T05:41:14.136Z,45.67
2018-04-13T05:43:41.656Z,51.50
2018-04-13T05:46:08.455Z,54.67
2018-04-13T05:48:35.272Z,48.83
2018-04-13T05:51:02.096Z,56.57
2018-04-13T05:53:28.873Z,52.63
2018-04-13T05:55:55.673Z,50.00
2018-04-13T05:58:22.458Z,53.20
2018-04-13T06:00:49.220Z,53.57
2018-04-13T06:03:16.010Z,36.13
2018-04-13T06:05:42.783Z,45.80
2018-04-13T06:08:09.548Z,41.13
2018-04-13T06:10:36.776Z,48.20
2018-04-13T06:13:03.561Z,49.67
2018-04-13T06:15:30.576Z,54.17
2018-04-13T06:17:57.360Z,37.47
2018-04-13T06:20:24.363Z,42.77
2018-04-13T06:22:51.144Z,45.30
2018-04-13T06:25:17.917Z,45.83
2018-04-13T06:27:45.366Z,43.37
2018-04-13T06:30:13.801Z,45.50
2018-04-13T06:32:40.584Z,46.90
2018-04-13T06:35:07.337Z,46.50
2018-04-13T06:37:35.225Z,39.10
2018-04-13T06:40:02.041Z,48.03
2018-04-13T06:42:28.801Z,43.00
2018-04-13T06:44:55.565Z,47.40
2018-04-13T06:47:22.361Z,46.77
2018-04-13T06:49:49.182Z,41.37
2018-04-13T06:52:16.008Z,39.00
2018-04-13T06:54:43.553Z,39.97
2018-04-13T06:57:10.320Z,44.77
2018-04-13T06:59:37.113Z,43.73
2018-04-13T07:02:04.636Z,42.33
2018-04-13T07:04:31.468Z,40.97
2018-04-13T07:06:58.426Z,35.90
2018-04-13T07:09:25.192Z,44.00
2018-04-13T07:11:51.950Z,46.43
2018-04-13T07:14:18.722Z,39.43
2018-04-13T07:16:45.590Z,41.67
2018-04-13T07:19:12.690Z,40.70
2018-04-13T07:21:39.488Z,40.67
2018-04-13T07:24:06.266Z,42.00
2018-04-13T07:26:33.038Z,43.87
2018-04-13T07:28:59.838Z,42.17
2018-04-13T07:31:26.975Z,40.30
2018-04-13T07:33:53.752Z,42.40
2018-04-13T07:36:20.538Z,50.10
2018-04-13T07:38:47.358Z,43.33
2018-04-13T07:41:14.972Z,40.67
2018-04-13T07:43:41.722Z,35.83
2018-04-13T07:46:09.117Z,35.50
2018-04-13T07:48:35.896Z,39.27
2018-04-13T07:51:02.652Z,35.90
2018-04-13T07:53:29.485Z,38.67
2018-04-13T07:55:56.238Z,49.93
2018-04-13T07:58:23.223Z,44.83
2018-04-13T08:00:50.502Z,37.60
2018-04-13T08:03:16.823Z,56.20
2018-04-13T08:05:43.605Z,40.33
2018-04-13T08:08:10.511Z,41.10
2018-04-13T08:10:37.342Z,43.27
2018-04-13T08:13:04.094Z,38.43
2018-04-13T08:15:31.466Z,43.23
2018-04-13T08:17:58.324Z,39.57
2018-04-13T08:20:25.066Z,39.53
2018-04-13T08:22:52.328Z,40.30
2018-04-13T08:25:19.715Z,41.37
2018-04-13T08:27:46.573Z,44.23
2018-04-13T08:30:13.365Z,40.37
2018-04-13T08:32:40.122Z,34.37
2018-04-13T08:35:06.901Z,37.70
2018-04-13T08:37:33.961Z,43.70
2018-04-13T08:40:00.916Z,40.90
2018-04-13T08:42:27.716Z,39.07
2018-04-13T08:44:54.544Z,38.90
2018-04-13T08:47:21.312Z,35.67
2018-04-13T08:49:48.085Z,44.13
2018-04-13T08:52:14.889Z,46.33
2018-04-13T08:54:41.661Z,51.97
2018-04-13T08:57:08.921Z,44.20
2018-04-13T08:59:35.995Z,41.90
2018-04-13T09:02:02.925Z,42.37
2018-04-13T09:04:30.440Z,31.50
2018-04-13T09:06:57.212Z,49.77
2018-04-13T09:09:23.974Z,34.53
2018-04-13T09:11:50.744Z,36.30
2018-04-13T09:14:17.507Z,36.80
2018-04-13T09:16:44.357Z,38.90
2018-04-13T09:19:11.114Z,40.70
2018-04-13T09:21:37.928Z,42.77
2018-04-13T09:24:04.692Z,36.90
2018-04-13T09:26:31.544Z,38.53
2018-04-13T09:28:58.306Z,39.50
2018-04-13T09:31:25.118Z,33.10
2018-04-13T09:33:51.978Z,39.50
2018-04-13T09:36:18.832Z,48.07
2018-04-13T09:38:45.614Z,43.93
2018-04-13T09:41:12.401Z,43.43
2018-04-13T09:43:39.202Z,41.80
2018-04-13T09:46:06.052Z,36.90
2018-04-13T09:48:32.950Z,38.10
2018-04-13T09:50:59.729Z,38.63
2018-04-13T09:53:26.509Z,38.57
2018-04-13T09:55:53.354Z,49.50
2018-04-13T09:58:21.104Z,40.63
2018-04-13T10:00:47.879Z,36.57
2018-04-13T10:03:20.480Z,36.77
2018-04-13T10:05:47.290Z,39.90
2018-04-13T10:08:14.075Z,45.30
2018-04-13T10:10:40.861Z,37.00
2018-04-13T10:13:07.685Z,38.37
2018-04-13T10:15:34.669Z,38.83
2018-04-13T10:18:01.444Z,35.70
2018-04-13T10:20:28.234Z,41.17
2018-04-13T10:22:55.033Z,38.90
2018-04-13T10:25:21.875Z,37.33
2018-04-13T10:27:48.691Z,38.33
2018-04-13T10:30:15.452Z,40.20
2018-04-13T10:32:42.372Z,40.43
2018-04-13T10:35:09.146Z,45.63
2018-04-13T10:37:35.911Z,41.70
2018-04-13T10:40:02.730Z,46.47
2018-04-13T10:42:29.485Z,41.97
2018-04-13T10:44:56.293Z,42.30
2018-04-13T10:47:23.137Z,33.33
2018-04-13T10:49:49.899Z,42.80
2018-04-13T10:52:16.737Z,36.43
2018-04-13T10:54:43.525Z,35.73
2018-04-13T10:57:10.320Z,39.53
2018-04-13T10:59:37.093Z,37.87
2018-04-13T11:02:03.898Z,43.00
2018-04-13T11:04:30.720Z,36.33
2018-04-13T11:06:57.520Z,42.20
2018-04-13T11:09:24.326Z,47.23
2018-04-13T11:11:51.101Z,41.90
2018-04-13T11:14:18.489Z,40.10
2018-04-13T11:16:45.298Z,40.20
2018-04-13T11:19:12.194Z,38.67
2018-04-13T11:21:38.988Z,43.30
2018-04-13T11:24:05.750Z,42.63
2018-04-13T11:26:32.518Z,42.83
2018-04-13T11:28:59.322Z,48.47
2018-04-13T11:31:26.242Z,34.80
2018-04-13T11:33:53.021Z,40.07
2018-04-13T11:36:19.801Z,48.87
2018-04-13T11:38:46.569Z,38.30
2018-04-13T11:41:13.372Z,35.10
2018-04-13T11:43:40.142Z,36.17
2018-04-13T11:46:06.920Z,34.87
2018-04-13T11:48:33.670Z,38.57
2018-04-13T11:51:01.450Z,32.40
2018-04-13T11:53:28.261Z,40.90
2018-04-13T11:55:55.414Z,43.63
2018-04-13T11:58:22.213Z,44.63
2018-04-13T12:00:49.356Z,39.97
2018-04-13T12:03:16.126Z,48.33
2018-04-13T12:05:43.008Z,46.47
2018-04-13T12:08:10.510Z,38.77
2018-04-13T12:10:37.296Z,34.00
2018-04-13T12:13:04.056Z,43.17
2018-04-13T12:15:31.365Z,37.43
2018-04-13T12:17:58.196Z,37.33
2018-04-13T12:20:24.976Z,41.17
2018-04-13T12:22:51.719Z,44.03
2018-04-13T12:25:18.505Z,39.60
2018-04-13T12:27:45.280Z,38.13
2018-04-13T12:30:12.095Z,50.63
2018-04-13T12:32:38.862Z,49.67
2018-04-13T12:35:05.633Z,57.23
2018-04-13T12:37:32.570Z,50.00
2018-04-13T12:39:59.335Z,49.67
2018-04-13T12:42:26.126Z,45.50
2018-04-13T12:44:52.891Z,47.00
2018-04-13T12:47:19.646Z,55.37
2018-04-13T12:49:46.418Z,58.20
2018-04-13T12:52:13.194Z,47.27
2018-04-13T12:54:40.165Z,50.07
2018-04-13T12:57:07.089Z,43.93
2018-04-13T12:59:33.888Z,47.07
2018-04-13T13:02:00.656Z,44.23
2018-04-13T13:04:28.048Z,42.10
2018-04-13T13:06:54.856Z,43.47
2018-04-13T13:09:21.634Z,44.83
2018-04-13T13:11:48.735Z,44.50
2018-04-13T13:14:15.511Z,50.30
2018-04-13T13:16:42.287Z,57.03
2018-04-13T13:19:09.097Z,57.30
2018-04-13T13:21:35.897Z,45.93
2018-04-13T13:24:03.633Z,43.63
2018-04-13T13:26:30.421Z,43.50
2018-04-13T13:28:57.173Z,48.63
2018-04-13T13:31:23.974Z,57.00
2018-04-13T13:33:51.424Z,49.03
2018-04-13T13:36:18.174Z,45.83
2018-04-13T13:38:44.933Z,44.57
2018-04-13T13:41:11.695Z,40.63
2018-04-13T13:43:38.520Z,48.63
2018-04-13T13:46:05.278Z,54.03
2018-04-13T13:48:32.063Z,62.17
2018-04-13T13:50:58.846Z,42.27
2018-04-13T13:53:25.632Z,44.80
2018-04-13T13:55:52.420Z,46.47
2018-04-13T13:58:19.382Z,53.73
2018-04-13T14:00:46.157Z,45.63
2018-04-13T14:03:12.927Z,42.97
2018-04-13T14:05:39.689Z,45.30
2018-04-13T14:08:06.514Z,42.67
2018-04-13T14:10:33.415Z,48.97
2018-04-13T14:13:00.179Z,56.43
2018-04-13T14:15:26.949Z,56.73
2018-04-13T14:17:53.697Z,45.77
2018-04-13T14:20:20.521Z,46.00
2018-04-13T14:22:47.285Z,46.03
2018-04-13T14:25:14.078Z,45.17
2018-04-13T14:27:40.864Z,51.70
2018-04-13T14:30:07.640Z,49.80
2018-04-13T14:32:35.451Z,50.07
2018-04-13T14:35:02.229Z,40.60
2018-04-13T14:37:29.004Z,39.50
2018-04-13T14:39:55.796Z,54.17
2018-04-13T14:42:22.577Z,49.00
2018-04-13T14:44:49.373Z,47.70
2018-04-13T14:47:16.157Z,59.13
2018-04-13T14:49:42.953Z,50.97
2018-04-13T14:52:09.769Z,51.17
2018-04-13T14:54:36.563Z,45.27
2018-04-13T14:57:03.738Z,73.27
2018-04-13T14:59:30.513Z,63.03
2018-04-13T15:01:57.303Z,56.27
2018-04-13T15:04:24.296Z,65.80
2018-04-13T15:06:51.068Z,64.97
2018-04-13T15:09:17.899Z,66.87
2018-04-13T15:11:44.691Z,62.90
2018-04-13T15:14:11.478Z,60.47
2018-04-13T15:16:38.272Z,58.70
2018-04-13T15:19:05.056Z,78.53
2018-04-13T15:21:31.849Z,65.63
2018-04-13T15:23:58.615Z,51.63
2018-04-13T15:26:25.392Z,61.53
2018-04-13T15:28:52.671Z,51.60
2018-04-13T15:31:19.495Z,57.60
2018-04-13T15:33:46.360Z,61.23
2018-04-13T15:36:13.177Z,64.53
2018-04-13T15:38:40.026Z,51.23
2018-04-13T15:41:06.875Z,67.40
2018-04-13T15:43:33.684Z,50.50
2018-04-13T15:46:00.509Z,55.70
2018-04-13T15:48:27.287Z,53.60
2018-04-13T15:50:54.108Z,54.43
2018-04-13T15:53:20.912Z,48.33
2018-04-13T15:55:47.712Z,51.40
2018-04-13T15:58:14.659Z,52.07
2018-04-13T16:00:41.597Z,59.67
2018-04-13T16:03:08.473Z,47.10
2018-04-13T16:05:35.296Z,48.03
2018-04-13T16:08:02.081Z,52.97
2018-04-13T16:10:28.917Z,51.30
2018-04-13T16:12:55.730Z,42.50
2018-04-13T16:15:22.581Z,58.87
2018-04-13T16:17:49.356Z,41.47
2018-04-13T16:20:16.140Z,55.63
2018-04-13T16:22:42.964Z,40.87
2018-04-13T16:25:09.726Z,42.60
2018-04-13T16:27:36.512Z,37.70
2018-04-13T16:30:03.333Z,38.13
2018-04-13T16:32:30.146Z,41.13
2018-04-13T16:34:56.968Z,35.47
2018-04-13T16:37:23.736Z,37.60
2018-04-13T16:39:50.505Z,40.43
2018-04-13T16:42:17.286Z,45.87
2018-04-13T16:44:44.068Z,30.00
2018-04-13T16:47:10.890Z,37.40
2018-04-13T16:49:37.674Z,46.73
2018-04-13T16:52:04.467Z,36.60
2018-04-13T16:54:31.251Z,30.70
2018-04-13T16:56:58.052Z,34.13
2018-04-13T16:59:24.894Z,44.20
2018-04-13T17:01:51.673Z,37.60
2018-04-13T17:04:18.484Z,32.33
2018-04-13T17:06:45.320Z,32.10
2018-04-13T17:09:12.095Z,36.83
2018-04-13T17:11:38.924Z,37.97
2018-04-13T17:14:05.705Z,38.20
2018-04-13T17:16:32.511Z,33.43
2018-04-13T17:18:59.270Z,38.83
2018-04-13T17:21:26.298Z,32.63
2018-04-13T17:23:53.158Z,45.70
2018-04-13T17:26:19.956Z,31.50
2018-04-13T17:28:46.918Z,43.13
2018-04-13T17:31:13.678Z,43.27
2018-04-13T17:33:40.457Z,34.77
2018-04-13T17:36:07.951Z,36.73
2018-04-13T17:38:34.721Z,39.83
2018-04-13T17:41:01.506Z,30.00
2018-04-13T17:43:28.873Z,34.07
2018-04-13T17:45:55.655Z,34.50
2018-04-13T17:48:22.480Z,23.57
2018-04-13T17:50:49.278Z,37.90
2018-04-13T17:53:16.093Z,51.13
2018-04-13T17:55:43.261Z,29.27
2018-04-13T17:58:10.057Z,35.63
2018-04-13T18:00:36.922Z,33.53
2018-04-13T18:03:04.110Z,37.00
2018-04-13T18:05:31.626Z,31.20
2018-04-13T18:07:58.433Z,34.00
2018-04-13T18:10:25.215Z,30.10
2018-04-13T18:12:52.058Z,31.50
2018-04-13T18:15:18.834Z,37.77
2018-04-13T18:17:45.601Z,30.97
2018-04-13T18:20:12.381Z,28.57
2018-04-13T18:22:39.138Z,28.77
2018-04-13T18:25:05.952Z,36.83
2018-04-13T18:27:32.723Z,32.57
2018-04-13T18:29:59.496Z,45.73
2018-04-13T18:32:26.257Z,26.67
2018-04-13T18:34:53.039Z,30.67
2018-04-13T18:37:19.831Z,30.63
2018-04-13T18:39:46.607Z,30.80
2018-04-13T18:42:13.385Z,33.67
2018-04-13T18:44:40.389Z,34.20
2018-04-13T18:47:08.435Z,26.63
2018-04-13T18:49:35.245Z,29.80
2018-04-13T18:52:02.270Z,38.80
2018-04-13T18:54:29.063Z,34.23
2018-04-13T18:56:55.839Z,31.93
2018-04-13T18:59:34.435Z,34.90
2018-04-13T19:02:01.303Z,31.63
2018-04-13T19:04:28.250Z,37.10
2018-04-13T19:06:55.378Z,32.90
2018-04-13T19:09:22.231Z,45.20
2018-04-13T19:11:49.040Z,34.03
2018-04-13T19:14:15.828Z,32.90
2018-04-13T19:16:42.728Z,30.47
2018-04-13T19:19:09.505Z,35.77
2018-04-13T19:21:36.293Z,32.20
2018-04-13T19:24:03.093Z,35.67
2018-04-13T19:26:30.193Z,33.13
2018-04-13T19:28:57.391Z,31.37
2018-04-13T19:31:24.952Z,34.13
2018-04-13T19:33:51.758Z,27.43
2018-04-13T19:36:18.546Z,24.50
2018-04-13T19:38:45.410Z,36.27
2018-04-13T19:41:12.175Z,30.23
2018-04-13T19:43:38.951Z,24.50
2018-04-13T19:46:05.762Z,33.20
2018-04-13T19:48:32.541Z,36.03
2018-04-13T19:50:59.391Z,42.93
2018-04-13T19:53:26.469Z,26.43
2018-04-13T19:55:53.251Z,41.93
2018-04-13T19:58:20.752Z,34.67
2018-04-13T20:00:47.573Z,30.13
2018-04-13T20:03:14.361Z,30.50
2018-04-13T20:05:41.280Z,37.20
2018-04-13T20:08:08.119Z,30.03
2018-04-13T20:10:34.933Z,40.80
2018-04-13T20:13:01.694Z,30.87
2018-04-13T20:15:28.462Z,31.40
2018-04-13T20:17:55.259Z,33.07
2018-04-13T20:20:22.036Z,26.63
2018-04-13T20:22:48.888Z,29.93
2018-04-13T20:25:16.549Z,37.30
2018-04-13T20:27:43.353Z,35.60
2018-04-13T20:30:10.297Z,28.13
2018-04-13T20:32:37.090Z,32.47
2018-04-13T20:35:03.905Z,46.43
2018-04-13T20:37:31.035Z,34.83
2018-04-13T20:39:57.828Z,36.47
2018-04-13T20:42:24.634Z,49.13
2018-04-13T20:44:52.021Z,39.83
2018-04-13T20:47:18.790Z,28.30
2018-04-13T20:49:45.574Z,39.03
2018-04-13T20:52:12.352Z,34.47
2018-04-13T20:54:39.200Z,37.47
2018-04-13T20:57:05.985Z,39.70
2018-04-13T20:59:32.740Z,44.67
2018-04-13T21:01:59.510Z,34.67
2018-04-13T21:04:26.300Z,34.67
2018-04-13T21:06:53.932Z,34.70
2018-04-13T21:09:20.704Z,32.20
2018-04-13T21:11:47.459Z,27.57
2018-04-13T21:14:14.877Z,42.27
2018-04-13T21:16:42.465Z,47.63
2018-04-13T21:19:09.344Z,54.10
2018-04-13T21:21:36.501Z,43.37
2018-04-13T21:24:03.260Z,40.73
2018-04-13T21:26:30.068Z,47.73
2018-04-13T21:28:56.839Z,53.90
2018-04-13T21:31:23.631Z,52.93
2018-04-13T21:33:50.406Z,50.80
2018-04-13T21:36:17.180Z,46.30
2018-04-13T21:38:43.925Z,46.47
2018-04-13T21:41:10.680Z,40.13
2018-04-13T21:43:37.480Z,57.27
2018-04-13T21:46:04.257Z,64.13
2018-04-13T21:48:31.030Z,36.00
2018-04-13T21:50:57.789Z,47.67
2018-04-13T21:53:24.552Z,45.97
2018-04-13T21:55:51.391Z,41.40
2018-04-13T21:58:18.154Z,71.10
2018-04-13T22:00:44.921Z,72.57
2018-04-13T22:03:11.699Z,58.70
2018-04-13T22:05:38.504Z,58.50
2018-04-13T22:08:05.318Z,70.10
2018-04-13T22:10:32.084Z,52.00
2018-04-13T22:13:04.679Z,86.87
2018-04-13T22:15:31.429Z,66.07
2018-04-13T22:17:58.199Z,52.17
2018-04-13T22:20:25.161Z,58.43
2018-04-13T22:22:52.393Z,64.67
2018-04-13T22:25:19.188Z,58.80
2018-04-13T22:27:45.981Z,74.70
